createdAt,value
2019-05-16T00:32:08.491Z,9.13
2019-05-16T00:33:08.315Z,9.19
2019-05-16T00:34:15.583Z,9.13
2019-05-16T00:36:10.771Z,9.04
2019-05-16T00:37:22.912Z,9.04
2019-05-16T00:39:15.116Z,9.11
2019-05-16T00:40:15.063Z,8.97
2019-05-16T00:42:19.975Z,9.02
2019-05-16T00:45:49.791Z,8.88
2019-05-16T00:48:22.225Z,8.94
2019-05-16T00:49:21.811Z,8.88
2019-05-16T00:50:21.724Z,8.89
2019-05-16T00:51:22.337Z,8.89
2019-05-16T00:52:21.648Z,8.92
2019-05-16T00:53:21.603Z,8.85
2019-05-16T00:54:21.566Z,8.84
2019-05-16T00:55:21.520Z,8.67
2019-05-16T00:58:28.410Z,8.69
2019-05-16T00:59:35.085Z,8.70
2019-05-16T01:01:30.276Z,8.76
2019-05-16T01:02:30.164Z,8.79
2019-05-16T01:03:30.128Z,8.82
2019-05-16T01:04:30.604Z,8.73
2019-05-16T01:05:30.529Z,8.73
2019-05-16T01:06:30.003Z,8.71
2019-05-16T01:07:29.966Z,8.69
2019-05-16T01:08:29.918Z,8.70
2019-05-16T01:09:39.058Z,8.70
2019-05-16T01:11:34.366Z,8.79
2019-05-16T01:12:34.331Z,8.74
2019-05-16T01:13:34.192Z,8.74
2019-05-16T01:14:34.634Z,8.69
2019-05-16T01:15:34.562Z,8.69
2019-05-16T01:16:34.068Z,8.63
2019-05-16T01:17:34.042Z,8.66
2019-05-16T01:18:33.985Z,8.66
2019-05-16T01:19:33.944Z,8.61
2019-05-16T01:20:33.907Z,8.64
2019-05-16T01:21:33.870Z,8.53
2019-05-16T01:22:33.829Z,8.55
2019-05-16T01:23:33.790Z,8.73
2019-05-16T01:24:33.753Z,8.78
2019-05-16T01:25:33.705Z,8.78
2019-05-16T01:26:33.666Z,8.73
2019-05-16T01:27:42.806Z,8.71
2019-05-16T01:29:38.646Z,8.56
2019-05-16T01:30:39.043Z,8.44
2019-05-16T01:31:38.084Z,8.38
2019-05-16T01:32:48.930Z,8.36
2019-05-16T01:34:42.889Z,8.37
2019-05-16T01:37:14.818Z,8.34
2019-05-16T01:38:24.477Z,8.38
2019-05-16T01:40:19.719Z,8.28
2019-05-16T01:41:28.490Z,8.26
2019-05-16T01:43:23.488Z,8.27
2019-05-16T01:44:23.009Z,8.26
2019-05-16T01:47:28.854Z,8.41
2019-05-16T01:48:29.258Z,8.31
2019-05-16T01:49:28.231Z,8.37
2019-05-16T01:50:28.358Z,8.37
2019-05-16T01:51:28.852Z,8.37
2019-05-16T01:52:28.947Z,8.31
2019-05-16T01:53:27.861Z,8.31
2019-05-16T01:54:28.437Z,8.31
2019-05-16T01:55:28.548Z,8.31
2019-05-16T01:56:28.103Z,8.23
2019-05-16T01:57:28.257Z,8.26
2019-05-16T02:00:37.267Z,8.23
2019-05-16T02:01:32.180Z,8.23
2019-05-16T02:02:40.386Z,8.19
2019-05-16T02:04:44.382Z,8.20
2019-05-16T02:05:38.552Z,8.20
2019-05-16T02:08:08.959Z,8.18
2019-05-16T02:09:08.049Z,8.16
2019-05-16T02:11:48.157Z,8.06
2019-05-16T02:12:48.813Z,8.05
2019-05-16T02:13:48.469Z,8.10
2019-05-16T02:14:48.105Z,7.98
2019-05-16T02:15:48.648Z,8.09
2019-05-16T02:16:47.726Z,8.01
2019-05-16T02:17:48.300Z,8.13
2019-05-16T02:18:48.673Z,8.12
2019-05-16T02:19:48.386Z,8.03
2019-05-16T02:20:47.963Z,8.08
2019-05-16T02:21:47.641Z,7.87
2019-05-16T02:22:55.389Z,7.83
2019-05-16T02:24:58.818Z,7.79
2019-05-16T02:25:51.613Z,7.76
2019-05-16T02:26:52.417Z,7.76
2019-05-16T02:27:50.963Z,7.69
2019-05-16T02:28:51.475Z,7.76
2019-05-16T02:29:50.926Z,7.93
2019-05-16T02:30:51.389Z,7.83
2019-05-16T02:31:51.566Z,7.88
2019-05-16T02:32:52.221Z,7.85
2019-05-16T02:33:51.081Z,7.85
2019-05-16T02:34:51.425Z,7.79
2019-05-16T02:35:54.723Z,7.82
2019-05-16T02:37:10.617Z,7.80
2019-05-16T02:37:54.761Z,7.83
2019-05-16T02:40:55.534Z,7.88
2019-05-16T02:41:54.458Z,7.88
2019-05-16T02:42:56.196Z,7.85
2019-05-16T02:43:54.374Z,7.88
2019-05-16T02:44:54.800Z,7.88
2019-05-16T02:45:55.264Z,7.93
2019-05-16T02:47:03.227Z,7.90
2019-05-16T02:49:00.837Z,7.85
2019-05-16T02:50:00.818Z,7.94
2019-05-16T02:51:01.580Z,7.97
2019-05-16T02:52:01.181Z,7.90
2019-05-16T02:53:01.369Z,7.85
2019-05-16T02:54:01.164Z,7.85
2019-05-16T02:55:00.856Z,7.91
2019-05-16T02:56:01.150Z,7.95
2019-05-16T02:57:01.179Z,7.97
2019-05-16T02:58:00.816Z,7.95
2019-05-16T02:59:01.427Z,7.95
2019-05-16T03:00:01.245Z,7.98
2019-05-16T03:01:01.441Z,7.90
2019-05-16T03:02:00.635Z,7.76
2019-05-16T03:03:00.983Z,7.87
2019-05-16T03:03:58.002Z,7.87
2019-05-16T03:05:00.648Z,7.93
2019-05-16T03:06:01.049Z,7.90
2019-05-16T03:07:00.406Z,7.82
2019-05-16T03:08:01.041Z,7.93
2019-05-16T03:08:57.795Z,7.94
2019-05-16T03:10:01.162Z,7.98
2019-05-16T03:11:00.754Z,7.85
2019-05-16T03:11:57.676Z,7.82
2019-05-16T03:13:00.577Z,7.93
2019-05-16T03:14:00.396Z,7.85
2019-05-16T03:15:10.698Z,7.93
2019-05-16T03:17:01.995Z,7.88
2019-05-16T03:18:11.497Z,7.87
2019-05-16T03:20:10.556Z,7.85
2019-05-16T03:21:16.989Z,7.88
2019-05-16T03:37:25.076Z,7.87
2019-05-16T03:38:21.497Z,7.88
2019-05-16T03:39:21.303Z,7.93
2019-05-16T03:40:21.372Z,7.97
2019-05-16T03:41:21.648Z,7.98
2019-05-16T03:42:21.406Z,7.98
2019-05-16T03:43:21.774Z,8.05
2019-05-16T03:44:21.335Z,7.97
2019-05-16T03:45:21.416Z,8.03
2019-05-16T03:46:21.798Z,7.94
2019-05-16T03:47:21.885Z,7.90
2019-05-16T03:48:21.584Z,7.93
2019-05-16T03:49:21.247Z,7.94
2019-05-16T03:50:21.748Z,7.90
2019-05-16T03:51:21.505Z,7.94
2019-05-16T03:52:20.955Z,7.97
2019-05-16T03:53:21.253Z,7.93
2019-05-16T03:54:21.468Z,7.93
2019-05-16T03:55:21.328Z,7.97
2019-05-16T03:56:21.944Z,7.95
2019-05-16T03:57:21.452Z,8.03
2019-05-16T03:58:22.500Z,8.08
2019-05-16T03:59:21.573Z,8.12
2019-05-16T04:00:31.634Z,8.23
2019-05-16T04:02:25.118Z,8.08
2019-05-16T04:03:28.140Z,8.23
2019-05-16T04:04:24.501Z,8.18
2019-05-16T04:05:24.472Z,8.23
2019-05-16T04:06:25.125Z,8.24
2019-05-16T04:07:24.849Z,8.23
2019-05-16T04:08:25.565Z,8.19
2019-05-16T04:09:25.207Z,8.31
2019-05-16T04:10:24.755Z,8.28
2019-05-16T04:11:25.160Z,8.42
2019-05-16T04:12:24.618Z,8.37
2019-05-16T04:13:24.130Z,8.38
2019-05-16T04:14:24.089Z,8.37
2019-05-16T04:15:24.053Z,8.37
2019-05-16T04:16:24.010Z,8.24
2019-05-16T04:17:23.963Z,8.19
2019-05-16T04:18:23.924Z,8.24
2019-05-16T04:19:23.884Z,8.27
2019-05-16T04:20:23.840Z,8.23
2019-05-16T04:21:23.806Z,8.20
2019-05-16T04:22:23.764Z,8.24
2019-05-16T04:23:23.734Z,8.28
2019-05-16T04:24:23.683Z,8.27
2019-05-16T04:25:23.637Z,8.19
2019-05-16T04:26:23.604Z,8.23
2019-05-16T04:27:23.564Z,8.23
2019-05-16T04:28:23.520Z,8.23
2019-05-16T04:29:23.477Z,8.19
2019-05-16T04:30:23.440Z,8.23
2019-05-16T04:31:23.397Z,8.23
2019-05-16T04:32:23.357Z,8.27
2019-05-16T04:33:23.321Z,8.26
2019-05-16T04:34:23.278Z,8.23
2019-05-16T04:35:32.859Z,8.27
2019-05-16T04:37:31.104Z,8.27
2019-05-16T04:38:41.388Z,8.31
2019-05-16T04:40:32.898Z,8.33
2019-05-16T04:41:32.361Z,8.28
2019-05-16T04:42:32.293Z,8.31
2019-05-16T04:43:32.302Z,8.33
2019-05-16T04:44:32.231Z,8.45
2019-05-16T04:45:41.381Z,8.44
2019-05-16T04:47:36.746Z,8.31
2019-05-16T04:48:36.693Z,8.48
2019-05-16T04:49:36.450Z,8.45
2019-05-16T04:50:36.039Z,8.46
2019-05-16T04:51:35.977Z,8.46
2019-05-16T04:54:41.839Z,8.60
2019-05-16T04:55:51.461Z,8.67
2019-05-16T04:57:54.772Z,8.55
2019-05-16T04:58:45.654Z,8.67
2019-05-16T04:59:44.991Z,8.70
2019-05-16T05:00:45.802Z,8.79
2019-05-16T05:01:44.947Z,8.78
2019-05-16T05:02:46.336Z,8.88
2019-05-16T05:04:00.238Z,9.10
2019-05-16T05:04:44.794Z,9.16
2019-05-16T05:05:44.828Z,9.28
2019-05-16T05:06:44.913Z,9.40
2019-05-16T05:07:44.427Z,9.48
2019-05-16T05:08:53.927Z,9.62
2019-05-16T05:09:44.198Z,9.74
2019-05-16T05:10:44.586Z,9.79
2019-05-16T05:11:44.111Z,9.79
2019-05-16T05:12:44.074Z,9.84
2019-05-16T05:13:44.036Z,9.66
2019-05-16T05:14:43.994Z,9.61
2019-05-16T05:15:43.954Z,9.66
2019-05-16T05:16:43.912Z,9.55
2019-05-16T05:17:43.871Z,9.61
2019-05-16T05:18:43.833Z,9.58
2019-05-16T05:19:43.791Z,9.58
2019-05-16T05:20:43.755Z,9.50
2019-05-16T05:21:43.720Z,9.65
2019-05-16T05:22:43.696Z,9.58
2019-05-16T05:23:43.630Z,9.54
2019-05-16T05:24:43.593Z,9.59
2019-05-16T05:25:43.582Z,9.62
2019-05-16T05:26:43.514Z,9.66
2019-05-16T05:27:43.486Z,9.62
2019-05-16T05:28:43.432Z,9.58
2019-05-16T05:29:43.390Z,9.55
2019-05-16T05:30:43.355Z,9.51
2019-05-16T05:31:45.248Z,9.46
2019-05-16T05:32:43.277Z,9.51
2019-05-16T05:33:43.239Z,9.55
2019-05-16T05:34:43.195Z,9.58
2019-05-16T05:35:43.171Z,9.65
2019-05-16T05:36:43.112Z,9.66
2019-05-16T05:37:43.077Z,9.43
2019-05-16T05:38:43.032Z,9.55
2019-05-16T05:39:43.000Z,9.56
2019-05-16T05:40:42.957Z,9.62
2019-05-16T05:41:42.913Z,9.68
2019-05-16T05:44:55.468Z,9.64
2019-05-16T05:45:47.601Z,9.74
2019-05-16T05:46:47.193Z,9.84
2019-05-16T05:47:47.637Z,9.82
2019-05-16T05:48:47.111Z,9.86
2019-05-16T05:49:47.073Z,9.76
2019-05-16T05:50:47.036Z,9.77
2019-05-16T05:51:46.999Z,9.83
2019-05-16T05:52:46.957Z,9.94
2019-05-16T05:53:46.915Z,9.98
2019-05-16T05:54:46.878Z,9.98
2019-05-16T05:55:46.834Z,10.05
2019-05-16T05:56:46.794Z,10.09
2019-05-16T05:57:46.753Z,10.20
2019-05-16T05:58:46.718Z,10.30
2019-05-16T05:59:46.675Z,10.31
2019-05-16T06:00:46.642Z,10.28
2019-05-16T06:01:46.603Z,10.25
2019-05-16T06:02:46.560Z,10.25
2019-05-16T06:03:46.522Z,10.23
2019-05-16T06:04:46.477Z,10.05
2019-05-16T06:05:46.435Z,10.10
2019-05-16T06:06:46.394Z,10.15
2019-05-16T06:07:46.360Z,10.17
2019-05-16T06:08:46.322Z,10.05
2019-05-16T06:09:53.468Z,10.10
2019-05-16T06:10:46.243Z,10.12
2019-05-16T06:11:46.202Z,10.23
2019-05-16T06:12:46.180Z,10.15
2019-05-16T06:13:46.132Z,10.17
2019-05-16T06:14:46.085Z,10.23
2019-05-16T06:15:46.146Z,10.30
2019-05-16T06:16:46.030Z,10.25
2019-05-16T06:17:45.961Z,10.31
2019-05-16T06:18:45.923Z,10.42
2019-05-16T06:19:45.886Z,10.33
2019-05-16T06:20:45.846Z,10.31
2019-05-16T06:21:45.818Z,10.16
2019-05-16T06:22:45.770Z,10.13
2019-05-16T06:23:45.728Z,10.23
2019-05-16T06:24:45.700Z,10.20
2019-05-16T06:25:45.645Z,10.23
2019-05-16T06:26:45.624Z,10.38
2019-05-16T06:27:45.594Z,10.38
2019-05-16T06:28:45.528Z,10.38
2019-05-16T06:29:45.488Z,10.37
2019-05-16T06:30:45.449Z,10.23
2019-05-16T06:33:33.439Z,10.38
2019-05-16T06:34:26.757Z,10.42
2019-05-16T06:35:25.690Z,10.30
2019-05-16T06:36:25.649Z,10.34
2019-05-16T09:50:31.664Z,13.81
2019-05-16T09:51:31.592Z,13.67
2019-05-16T09:52:31.383Z,13.63
2019-05-16T09:53:31.412Z,13.75
2019-05-16T09:54:31.291Z,13.79
2019-05-16T09:55:31.247Z,13.81
2019-05-16T09:56:31.211Z,13.85
2019-05-16T09:57:31.170Z,13.77
2019-05-16T09:58:31.135Z,13.90
2019-05-16T09:59:31.097Z,13.95
2019-05-16T10:00:31.050Z,14.18
2019-05-16T10:01:31.013Z,14.17
2019-05-16T10:02:30.980Z,14.18
2019-05-16T10:03:30.940Z,14.22
2019-05-16T10:04:30.894Z,14.03
2019-05-16T10:05:30.861Z,14.03
2019-05-16T10:06:30.821Z,14.03
2019-05-16T10:07:30.809Z,14.08
2019-05-16T10:08:30.748Z,14.08
2019-05-16T10:09:40.826Z,14.20
2019-05-16T10:10:30.672Z,14.22
2019-05-16T10:11:31.685Z,14.45
2019-05-16T10:12:30.594Z,14.37
2019-05-16T10:13:30.557Z,14.08
2019-05-16T10:14:30.520Z,14.03
2019-05-16T10:15:30.481Z,14.22
2019-05-16T10:16:30.460Z,14.28
2019-05-16T10:17:30.409Z,14.37
2019-05-16T10:18:30.369Z,14.47
2019-05-16T10:19:30.330Z,14.59
2019-05-16T10:20:30.299Z,14.69
2019-05-16T10:21:30.260Z,14.79
2019-05-16T10:22:30.223Z,14.88
2019-05-16T10:23:30.191Z,14.99
2019-05-16T10:24:30.145Z,15.00
2019-05-16T10:25:30.110Z,14.78
2019-05-16T10:26:30.075Z,14.60
2019-05-16T10:27:30.035Z,14.70
2019-05-16T10:28:30.001Z,14.58
2019-05-16T10:29:29.987Z,14.55
2019-05-16T10:30:29.927Z,14.59
2019-05-16T10:31:41.361Z,14.43
2019-05-16T10:32:29.853Z,14.62
2019-05-16T10:33:29.826Z,14.68
2019-05-16T10:34:29.784Z,14.53
2019-05-16T10:35:30.256Z,14.65
2019-05-16T10:36:29.705Z,14.59
2019-05-16T10:37:29.671Z,14.50
2019-05-16T10:38:29.633Z,14.59
2019-05-16T10:39:29.603Z,14.63
2019-05-16T10:40:29.563Z,14.70
2019-05-16T10:41:29.526Z,14.77
2019-05-16T10:42:29.489Z,14.72
2019-05-16T10:43:29.454Z,14.78
2019-05-16T10:44:29.416Z,14.72
2019-05-16T10:45:29.376Z,14.68
2019-05-16T10:46:29.340Z,14.66
2019-05-16T10:47:31.330Z,14.63
2019-05-16T10:48:29.271Z,14.58
2019-05-16T10:49:37.138Z,14.53
2019-05-16T10:50:29.231Z,14.66
2019-05-16T10:51:29.182Z,14.54
2019-05-16T10:52:29.125Z,14.47
2019-05-16T10:53:57.894Z,14.36
2019-05-16T10:54:29.121Z,14.32
2019-05-16T10:55:29.052Z,14.40
2019-05-16T10:56:28.979Z,14.30
2019-05-16T10:57:29.946Z,14.33
2019-05-16T10:58:37.203Z,14.47
2019-05-16T11:00:57.544Z,14.48
2019-05-16T11:01:31.394Z,14.47
2019-05-16T11:02:28.802Z,14.48
2019-05-16T11:03:28.747Z,14.35
2019-05-16T11:04:42.129Z,14.23
2019-05-16T11:05:36.185Z,14.33
2019-05-16T11:06:29.259Z,14.36
2019-05-16T11:07:29.815Z,14.40
2019-05-16T11:08:28.546Z,14.50
2019-05-16T11:09:28.507Z,14.45
2019-05-16T11:10:29.611Z,14.63
2019-05-16T11:11:28.433Z,14.63
2019-05-16T11:12:45.293Z,14.69
2019-05-16T11:13:28.359Z,14.59
2019-05-16T11:14:28.357Z,14.69
2019-05-16T11:15:28.292Z,14.73
2019-05-16T11:16:28.247Z,14.62
2019-05-16T11:17:28.213Z,14.50
2019-05-16T11:18:28.184Z,14.51
2019-05-16T11:19:28.323Z,14.50
2019-05-16T11:20:28.161Z,14.48
2019-05-16T11:21:28.070Z,14.47
2019-05-16T11:22:29.895Z,14.47
2019-05-16T11:23:31.276Z,14.66
2019-05-16T11:24:29.377Z,14.66
2019-05-16T11:25:31.855Z,14.96
2019-05-16T11:26:30.232Z,15.03
2019-05-16T11:27:27.856Z,15.02
2019-05-16T11:28:27.817Z,14.82
2019-05-16T11:29:27.784Z,14.91
2019-05-16T11:30:28.173Z,14.99
2019-05-16T11:31:27.707Z,15.03
2019-05-16T11:32:27.678Z,15.15
2019-05-16T11:33:28.223Z,15.09
2019-05-16T11:34:27.599Z,15.15
2019-05-16T11:35:27.566Z,15.22
2019-05-16T11:36:27.527Z,15.36
2019-05-16T11:37:27.957Z,15.39
2019-05-16T11:38:27.455Z,15.36
2019-05-16T11:39:27.441Z,15.04
2019-05-16T11:40:30.118Z,14.84
2019-05-16T11:41:27.681Z,14.79
2019-05-16T11:42:28.009Z,14.60
2019-05-16T11:43:27.880Z,14.63
2019-05-16T11:44:28.729Z,14.55
2019-05-16T11:45:27.328Z,14.30
2019-05-16T11:46:28.084Z,14.33
2019-05-16T11:47:27.274Z,14.44
2019-05-16T11:48:29.236Z,14.53
2019-05-16T11:49:27.590Z,14.65
2019-05-16T11:50:28.081Z,14.69
2019-05-16T11:51:27.370Z,14.63
2019-05-16T11:52:26.950Z,14.35
2019-05-16T11:53:28.201Z,14.37
2019-05-16T11:54:26.873Z,14.33
2019-05-16T11:55:33.390Z,14.32
2019-05-16T11:56:26.803Z,14.28
2019-05-16T11:57:26.777Z,14.32
2019-05-16T11:58:26.807Z,14.28
2019-05-16T11:59:26.694Z,14.43
2019-05-16T12:00:30.512Z,14.26
2019-05-16T12:01:27.606Z,14.12
2019-05-16T12:02:27.888Z,14.15
2019-05-16T12:03:28.198Z,14.07
2019-05-16T12:04:28.052Z,14.18
2019-05-16T12:05:26.993Z,14.14
2019-05-16T12:06:26.883Z,14.10
2019-05-16T12:07:33.938Z,14.03
2019-05-16T12:08:26.533Z,14.05
2019-05-16T12:09:33.365Z,14.03
2019-05-16T12:10:27.054Z,14.10
2019-05-16T12:11:27.410Z,14.18
2019-05-16T12:12:27.102Z,14.12
2019-05-16T12:13:31.820Z,14.20
2019-05-16T12:14:27.232Z,14.23
2019-05-16T12:15:27.390Z,14.35
2019-05-16T12:16:27.490Z,14.36
2019-05-16T12:17:28.030Z,14.33
2019-05-16T12:18:26.566Z,14.48
2019-05-16T12:19:33.352Z,14.45
2019-05-16T12:20:27.376Z,14.45
2019-05-16T12:21:27.428Z,14.30
2019-05-16T12:22:26.794Z,14.43
2019-05-16T12:23:27.550Z,14.41
2019-05-16T12:24:33.166Z,14.33
2019-05-16T12:25:27.341Z,14.30
2019-05-16T12:26:27.925Z,14.30
2019-05-16T12:27:32.336Z,14.30
2019-05-16T12:28:27.275Z,14.30
2019-05-16T12:29:27.926Z,14.26
2019-05-16T12:30:25.562Z,14.40
2019-05-16T12:31:25.531Z,14.53
2019-05-16T12:32:27.547Z,14.50
2019-05-16T12:33:27.492Z,14.60
2019-05-16T12:34:25.412Z,14.70
2019-05-16T12:35:27.536Z,14.81
2019-05-16T12:36:26.758Z,14.78
2019-05-16T12:37:27.437Z,14.82
2019-05-16T12:38:27.644Z,14.78
2019-05-16T12:39:33.878Z,14.69
2019-05-16T12:41:29.652Z,14.63
2019-05-16T12:42:29.585Z,14.63
2019-05-16T12:43:44.610Z,14.65
2019-05-16T12:44:29.511Z,14.65
2019-05-16T12:45:29.479Z,14.50
2019-05-16T12:46:29.439Z,14.48
2019-05-16T12:47:29.402Z,14.72
2019-05-16T12:48:29.373Z,14.82
2019-05-16T12:49:29.327Z,14.70
2019-05-16T12:50:29.291Z,14.70
2019-05-16T12:51:29.258Z,14.72
2019-05-16T12:52:29.217Z,14.62
2019-05-16T12:53:31.832Z,14.78
2019-05-16T12:54:29.147Z,14.96
2019-05-16T12:55:29.111Z,14.84
2019-05-16T12:56:29.076Z,14.84
2019-05-16T12:57:31.021Z,14.81
2019-05-16T12:58:38.097Z,14.70
2019-05-16T12:59:28.964Z,14.73
2019-05-16T13:00:28.931Z,14.70
2019-05-16T13:01:33.711Z,14.79
2019-05-16T13:02:28.853Z,14.69
2019-05-16T13:03:28.852Z,14.69
2019-05-16T13:04:28.778Z,14.69
2019-05-16T13:05:28.748Z,14.63
2019-05-16T13:06:28.709Z,14.63
2019-05-16T13:07:28.669Z,14.78
2019-05-16T13:08:28.639Z,14.88
2019-05-16T13:09:28.635Z,15.00
2019-05-16T13:10:28.562Z,14.99
2019-05-16T13:11:28.527Z,15.03
2019-05-16T13:12:28.491Z,14.84
2019-05-16T13:13:28.450Z,14.84
2019-05-16T13:14:28.419Z,14.70
2019-05-16T13:15:28.381Z,14.91
2019-05-16T13:16:28.347Z,15.02
2019-05-16T13:17:28.308Z,14.82
2019-05-16T13:18:28.274Z,15.04
2019-05-16T13:19:33.021Z,15.07
2019-05-16T13:20:28.195Z,15.02
2019-05-16T13:21:28.164Z,14.96
2019-05-16T13:22:28.128Z,14.92
2019-05-16T13:23:28.093Z,14.88
2019-05-16T13:24:28.161Z,14.91
2019-05-16T13:25:28.013Z,14.99
2019-05-16T13:26:27.984Z,14.99
2019-05-16T13:27:27.943Z,15.03
2019-05-16T13:28:27.903Z,15.25
2019-05-16T13:29:27.874Z,15.27
2019-05-16T13:30:27.835Z,15.36
2019-05-16T13:31:28.629Z,15.39
2019-05-16T13:32:27.758Z,15.39
2019-05-16T13:33:27.726Z,15.27
2019-05-16T13:34:28.185Z,15.27
2019-05-16T13:35:27.651Z,15.37
2019-05-16T13:36:27.619Z,15.24
2019-05-16T13:37:27.687Z,15.42
2019-05-16T13:38:28.088Z,15.31
2019-05-16T13:39:27.679Z,15.42
2019-05-16T13:40:27.702Z,15.44
2019-05-16T13:41:27.452Z,15.52
2019-05-16T13:42:27.398Z,15.51
2019-05-16T13:43:27.363Z,15.51
2019-05-16T13:44:27.607Z,15.46
2019-05-16T13:45:27.446Z,15.42
2019-05-16T13:46:27.255Z,15.51
2019-05-16T13:47:27.217Z,15.44
2019-05-16T13:48:27.183Z,15.35
2019-05-16T13:49:27.142Z,15.57
2019-05-16T13:50:27.400Z,15.62
2019-05-16T13:51:27.071Z,15.65
2019-05-16T13:52:28.225Z,15.59
2019-05-16T13:53:27.356Z,15.65
2019-05-16T13:54:27.084Z,15.58
2019-05-16T13:55:27.218Z,15.49
2019-05-16T13:56:27.361Z,15.55
2019-05-16T13:57:28.266Z,15.54
2019-05-16T13:58:28.301Z,15.70
2019-05-16T13:59:28.040Z,15.77
2019-05-16T14:00:27.930Z,15.75
2019-05-16T14:01:27.762Z,15.73
2019-05-16T14:02:26.814Z,15.79
2019-05-16T14:03:27.686Z,15.83
2019-05-16T14:04:26.612Z,15.76
2019-05-16T14:05:26.862Z,15.75
2019-05-16T14:06:26.533Z,15.76
2019-05-16T14:07:26.499Z,15.92
2019-05-16T14:08:26.822Z,15.92
2019-05-16T14:09:26.812Z,15.92
2019-05-16T14:10:29.631Z,15.90
2019-05-16T14:11:26.351Z,15.97
2019-05-16T14:12:26.778Z,15.97
2019-05-16T14:13:27.923Z,15.91
2019-05-16T14:14:37.166Z,16.04
2019-05-16T14:15:27.067Z,16.00
2019-05-16T14:16:26.955Z,16.02
2019-05-16T14:17:27.468Z,15.97
2019-05-16T14:18:27.270Z,15.91
2019-05-16T14:19:27.459Z,15.86
2019-05-16T14:20:26.031Z,15.76
2019-05-16T14:21:25.995Z,15.70
2019-05-16T14:22:27.784Z,15.84
2019-05-16T14:23:28.082Z,15.90
2019-05-16T14:24:28.156Z,15.92
2019-05-16T14:25:25.855Z,15.79
2019-05-16T14:26:25.816Z,15.90
2019-05-16T14:27:26.856Z,15.88
2019-05-16T14:28:25.749Z,15.80
2019-05-16T14:29:27.836Z,15.73
2019-05-16T14:30:28.312Z,15.70
2019-05-16T14:31:25.635Z,15.67
2019-05-16T14:32:25.601Z,15.76
2019-05-16T14:33:27.483Z,15.67
2019-05-16T14:34:27.903Z,15.67
2019-05-16T14:35:26.777Z,15.61
2019-05-16T14:36:27.770Z,15.72
2019-05-16T14:37:26.872Z,15.84
2019-05-16T14:38:26.956Z,15.80
2019-05-16T14:39:28.349Z,15.94
2019-05-16T14:40:27.701Z,15.90
2019-05-16T14:41:27.715Z,16.05
2019-05-16T14:42:27.820Z,15.90
2019-05-16T14:43:27.120Z,16.00
2019-05-16T14:44:28.379Z,15.94
2019-05-16T14:45:26.366Z,15.92
2019-05-16T14:46:27.262Z,16.04
2019-05-16T14:47:27.231Z,16.01
2019-05-16T14:48:27.570Z,16.02
2019-05-16T14:49:28.434Z,16.12
2019-05-16T14:50:27.532Z,16.23
2019-05-16T14:51:29.334Z,16.28
2019-05-16T14:52:26.974Z,16.26
2019-05-16T14:53:28.199Z,16.33
2019-05-16T14:54:26.786Z,16.33
2019-05-16T14:55:27.305Z,16.16
2019-05-16T14:56:27.334Z,16.12
2019-05-16T14:57:27.200Z,16.15
2019-05-16T14:58:30.348Z,16.13
2019-05-16T14:59:26.850Z,16.04
2019-05-16T15:00:27.402Z,16.01
2019-05-16T15:01:26.587Z,15.98
2019-05-16T15:02:27.296Z,15.95
2019-05-16T15:03:27.131Z,16.00
2019-05-16T15:04:29.813Z,15.95
2019-05-16T15:05:24.433Z,15.95
2019-05-16T15:06:24.383Z,16.01
2019-05-16T15:07:24.349Z,16.01
2019-05-16T15:08:24.313Z,16.04
2019-05-16T15:09:24.280Z,16.15
2019-05-16T15:10:24.241Z,16.28
2019-05-16T15:11:24.205Z,16.16
2019-05-16T15:12:26.644Z,16.13
2019-05-16T15:13:24.132Z,16.21
2019-05-16T15:14:24.096Z,16.24
2019-05-16T15:15:27.403Z,16.15
2019-05-16T15:16:24.025Z,16.00
2019-05-16T15:17:23.994Z,15.98
2019-05-16T15:18:23.965Z,15.95
2019-05-16T15:19:23.922Z,15.94
2019-05-16T15:20:23.886Z,15.90
2019-05-16T15:21:23.845Z,15.84
2019-05-16T15:34:47.694Z,15.83
2019-05-16T15:35:47.119Z,15.75
2019-05-16T15:36:46.653Z,15.84
2019-05-16T15:37:48.429Z,15.77
2019-05-16T15:38:47.220Z,15.80
2019-05-16T15:39:47.556Z,15.76
2019-05-16T15:40:48.035Z,15.70
2019-05-16T15:41:45.909Z,15.73
2019-05-16T15:42:45.871Z,15.62
2019-05-16T15:43:45.836Z,15.75
2019-05-16T15:44:45.797Z,15.72
2019-05-16T15:45:52.027Z,15.68
2019-05-16T15:46:47.650Z,15.54
2019-05-16T15:47:45.695Z,15.51
2019-05-16T15:48:48.570Z,15.58
2019-05-16T15:49:47.575Z,15.51
2019-05-16T15:50:45.575Z,15.43
2019-05-16T15:51:45.533Z,15.39
2019-05-16T15:52:45.498Z,15.36
2019-05-16T15:53:45.474Z,15.36
2019-05-16T15:54:45.422Z,15.47
2019-05-16T15:55:47.059Z,15.37
2019-05-16T15:56:46.702Z,15.25
2019-05-16T15:57:47.283Z,15.25
2019-05-16T15:58:46.688Z,15.39
2019-05-16T15:59:46.947Z,15.43
2019-05-16T16:00:48.111Z,15.36
2019-05-16T16:01:47.395Z,15.36
2019-05-16T16:02:45.134Z,15.25
2019-05-16T16:03:47.200Z,15.22
2019-05-16T16:04:47.579Z,15.18
2019-05-16T16:05:45.020Z,15.07
2019-05-16T16:06:47.219Z,15.04
2019-05-16T16:07:44.949Z,14.97
2019-05-16T16:08:46.956Z,15.06
2019-05-16T16:09:46.981Z,14.85
2019-05-16T16:10:47.511Z,14.85
2019-05-16T16:11:44.800Z,14.88
2019-05-16T16:12:44.765Z,14.81
2019-05-16T16:13:44.727Z,14.68
2019-05-16T16:14:46.589Z,14.82
2019-05-16T16:15:53.268Z,14.84
2019-05-16T16:16:46.354Z,14.82
2019-05-16T16:17:46.491Z,14.84
2019-05-16T16:18:46.698Z,14.79
2019-05-16T16:19:46.775Z,14.69
2019-05-16T16:20:47.572Z,14.77
2019-05-16T16:21:47.077Z,14.73
2019-05-16T16:22:46.733Z,14.79
2019-05-16T16:23:47.126Z,14.72
2019-05-16T16:24:47.528Z,14.66
2019-05-16T16:25:49.650Z,14.69
2019-05-16T16:26:44.253Z,14.69
2019-05-16T16:27:44.219Z,14.59
2019-05-16T16:28:44.178Z,14.63
2019-05-16T16:29:44.142Z,14.66
2019-05-16T16:30:44.109Z,14.65
2019-05-16T16:31:44.068Z,14.58
2019-05-16T16:32:44.032Z,14.53
2019-05-16T16:33:44.003Z,14.47
2019-05-16T16:34:43.961Z,14.51
2019-05-16T16:35:43.923Z,14.59
2019-05-16T16:36:43.882Z,14.53
2019-05-16T16:37:43.848Z,14.54
2019-05-16T16:38:43.806Z,14.50
2019-05-16T16:39:43.775Z,14.43
2019-05-16T16:40:43.738Z,14.33
2019-05-16T16:41:43.701Z,14.37
2019-05-16T16:42:43.664Z,14.33
2019-05-16T16:43:43.622Z,14.37
2019-05-16T16:44:43.590Z,14.36
2019-05-16T16:45:43.553Z,14.35
2019-05-16T16:46:43.517Z,14.33
2019-05-16T16:47:43.479Z,14.36
2019-05-16T16:48:43.441Z,14.36
2019-05-16T16:49:43.418Z,14.37
2019-05-16T16:50:43.365Z,14.37
2019-05-16T16:51:43.333Z,14.53
2019-05-16T16:52:43.293Z,14.47
2019-05-16T16:53:43.256Z,14.47
2019-05-16T16:54:43.228Z,14.45
2019-05-16T16:55:43.185Z,14.45
2019-05-16T16:56:43.150Z,14.37
2019-05-16T16:57:43.117Z,14.43
2019-05-16T16:58:43.068Z,14.35
2019-05-16T16:59:43.037Z,14.35
2019-05-16T17:00:42.998Z,14.36
2019-05-16T17:01:42.961Z,14.36
2019-05-16T17:02:58.456Z,14.36
2019-05-16T17:03:42.882Z,14.43
2019-05-16T17:04:42.854Z,14.37
2019-05-16T17:05:42.815Z,14.33
2019-05-16T17:06:42.779Z,14.30
2019-05-16T17:07:42.735Z,14.26
2019-05-16T17:08:42.700Z,14.32
2019-05-16T17:09:42.665Z,14.30
2019-05-16T17:10:42.625Z,14.25
2019-05-16T17:11:42.592Z,14.23
2019-05-16T17:12:42.725Z,14.11
2019-05-16T17:13:42.529Z,14.07
2019-05-16T17:14:42.480Z,14.08
2019-05-16T17:15:42.440Z,14.00
2019-05-16T17:16:42.403Z,14.05
2019-05-16T17:17:42.371Z,14.07
2019-05-16T17:18:42.332Z,14.08
2019-05-16T17:19:42.297Z,14.05
2019-05-16T17:20:42.259Z,13.95
2019-05-16T17:21:51.895Z,13.89
2019-05-16T17:22:42.179Z,13.92
2019-05-16T17:23:42.148Z,13.87
2019-05-16T17:24:42.108Z,13.78
2019-05-16T17:25:42.072Z,13.81
2019-05-16T17:26:42.035Z,13.67
2019-05-16T17:27:41.993Z,13.75
2019-05-16T17:28:41.958Z,13.62
2019-05-16T17:29:41.920Z,13.60
2019-05-16T17:30:41.881Z,13.72
2019-05-16T17:31:41.849Z,13.65
2019-05-16T17:32:41.811Z,13.70
2019-05-16T17:33:41.774Z,13.68
2019-05-16T17:34:41.736Z,13.70
2019-05-16T17:35:41.694Z,13.65
2019-05-16T17:36:41.658Z,13.57
2019-05-16T17:37:41.629Z,13.67
2019-05-16T17:38:41.599Z,13.57
2019-05-16T17:39:41.544Z,13.65
2019-05-16T17:40:41.509Z,13.60
2019-05-16T17:41:41.471Z,13.60
2019-05-16T17:42:41.432Z,13.56
2019-05-16T17:43:41.399Z,13.59
2019-05-16T17:44:41.363Z,13.68
2019-05-16T17:45:41.324Z,13.62
2019-05-16T17:46:41.287Z,13.53
2019-05-16T17:47:41.244Z,13.57
2019-05-16T17:48:41.209Z,13.57
2019-05-16T17:49:41.181Z,13.65
2019-05-16T17:50:41.135Z,13.56
2019-05-16T17:51:41.099Z,13.56
2019-05-16T17:52:41.061Z,13.56
2019-05-16T17:53:41.021Z,13.53
2019-05-16T17:54:40.981Z,13.47
2019-05-16T17:55:40.950Z,13.44
2019-05-16T17:56:40.910Z,13.44
2019-05-16T17:57:40.882Z,13.47
2019-05-16T17:58:40.836Z,13.52